Time;durP1;ratioP1;P1;durP2;ratioP2;P2;SDS_P1;SDS_P2;PMS_P1;PMS_P2;Temp;Humidity;BMP_temperature;BMP_pressure;BME280_temperature;BME280_humidity;BME280_pressure;Samples;Min_cycle;Max_cycle;Signal;HPM_P1;HPM_P2
2022/04/14 00:00:18;;;;;;;18.90;11.40;;;;;;;4.94;57.92;101103.36;88458;1271;88399;-69
2022/04/14 00:02:44;;;;;;;19.20;11.20;;;;;;;4.86;58.00;101101.38;88432;1271;95370;-69
2022/04/14 00:04:55;;;;;;;18.90;11.20;;;;;;;4.85;57.86;101100.77;88435;1271;79732;-60
2022/04/14 00:07:05;;;;;;;17.70;11.20;;;;;;;4.83;57.97;101101.48;88438;1271;81644;-60
2022/04/14 00:09:15;;;;;;;18.50;10.60;;;;;;;4.84;57.93;101102.33;88466;1271;99542;-70
2022/04/14 00:11:24;;;;;;;18.90;11.60;;;;;;;4.81;58.06;101099.42;88405;1269;87649;-69
2022/04/14 00:13:37;;;;;;;17.10;11.00;;;;;;;4.84;57.96;101098.45;88440;1271;95709;-70
2022/04/14 00:15:46;;;;;;;17.00;10.80;;;;;;;4.80;58.17;101099.78;88427;1271;79786;-70
2022/04/14 00:17:55;;;;;;;19.40;11.10;;;;;;;4.80;58.12;101098.53;88432;1271;81811;-69
2022/04/14 00:20:07;;;;;;;20.10;11.10;;;;;;;4.74;58.20;101093.42;88428;1271;98809;-60
2022/04/14 00:22:16;;;;;;;18.00;11.00;;;;;;;4.67;58.27;101094.39;88442;1271;86120;-60
2022/04/14 00:24:25;;;;;;;23.00;11.70;;;;;;;4.63;58.40;101093.79;88448;1271;95527;-61
2022/04/14 00:26:37;;;;;;;19.70;10.90;;;;;;;4.59;58.35;101094.85;88411;1271;80162;-60
2022/04/14 00:28:46;;;;;;;19.10;11.20;;;;;;;4.62;58.48;101095.17;88453;1271;80896;-64
2022/04/14 00:30:55;;;;;;;17.50;11.10;;;;;;;4.60;58.33;101093.40;88401;1270;98655;-59
2022/04/14 00:33:07;;;;;;;18.70;10.60;;;;;;;4.53;58.62;101089.70;88432;1271;86885;-60
2022/04/14 00:35:17;;;;;;;19.10;11.30;;;;;;;4.48;58.73;101085.39;88433;1271;94878;-71
2022/04/14 00:37:26;;;;;;;15.80;10.00;;;;;;;4.42;58.89;101083.39;88433;1271;80341;-69
2022/04/14 00:39:38;;;;;;;16.90;11.00;;;;;;;4.41;58.81;101079.55;88420;1271;81423;-60
2022/04/14 00:41:47;;;;;;;16.30;10.40;;;;;;;4.47;58.55;101077.02;88410;1271;97391;-61
2022/04/14 00:43:57;;;;;;;19.90;11.30;;;;;;;4.57;58.31;101072.19;88441;1271;88078;-69
2022/04/14 00:46:06;;;;;;;16.60;10.60;;;;;;;4.66;58.04;101077.27;88389;1270;94708;-69
2022/04/14 00:48:15;;;;;;;19.30;12.00;;;;;;;4.72;58.08;101079.42;88433;1271;79501;-70
2022/04/14 00:50:28;;;;;;;18.30;11.60;;;;;;;4.72;57.98;101077.52;88433;1271;83301;-70
2022/04/14 00:52:46;;;;;;;17.40;10.80;;;;;;;4.73;57.94;101073.50;88457;1271;99625;-70
2022/04/14 00:54:55;;;;;;;16.50;11.00;;;;;;;4.78;57.82;101072.16;88463;1271;88261;-60
2022/04/14 00:57:08;;;;;;;17.00;10.40;;;;;;;4.79;57.73;101070.30;88402;1271;94907;-60
2022/04/14 00:59:20;;;;;;;19.00;10.60;;;;;;;4.74;57.81;101073.05;88438;1271;79391;-59
2022/04/14 01:01:31;;;;;;;18.20;11.00;;;;;;;4.71;57.73;101069.55;88431;1271;80776;-60
2022/04/14 01:03:54;;;;;;;17.60;10.10;;;;;;;4.65;58.05;101071.13;88410;1270;99254;-60
2022/04/14 01:06:04;;;;;;;19.60;11.20;;;;;;;4.64;58.03;101070.55;88423;1271;89017;-69
2022/04/14 01:08:14;;;;;;;18.80;10.80;;;;;;;4.56;58.06;101073.96;88429;1271;95489;-70
2022/04/14 01:10:29;;;;;;;20.00;10.90;;;;;;;4.53;58.33;101069.09;88463;1271;77810;-60
2022/04/14 01:12:41;;;;;;;19.60;12.00;;;;;;;4.49;58.25;101069.22;88328;1271;83376;-60
2022/04/14 01:14:50;;;;;;;18.50;10.60;;;;;;;4.47;58.48;101068.71;88413;1271;98621;-58
2022/04/14 01:17:01;;;;;;;18.80;11.90;;;;;;;4.50;58.32;101070.25;88438;1271;88726;-60
2022/04/14 01:19:09;;;;;;;16.70;10.80;;;;;;;4.51;58.61;101073.66;88439;1271;94660;-69
2022/04/14 01:21:21;;;;;;;20.30;12.30;;;;;;;4.47;58.58;101076.11;88422;1271;76756;-70
2022/04/14 01:23:44;;;;;;;19.80;10.90;;;;;;;4.41;58.64;101073.64;88446;1271;81251;-69
2022/04/14 01:25:53;;;;;;;17.30;10.40;;;;;;;4.36;58.77;101078.20;88458;1269;95842;-70
2022/04/14 01:28:03;;;;;;;19.40;10.90;;;;;;;4.31;58.88;101076.15;88429;1271;88886;-71
2022/04/14 01:30:13;;;;;;;16.10;10.40;;;;;;;4.31;58.92;101076.35;88429;1271;93953;-60
2022/04/14 01:32:23;;;;;;;17.80;11.00;;;;;;;4.26;59.05;101079.05;88431;1271;78973;-61
2022/04/14 01:34:34;;;;;;;16.80;10.90;;;;;;;4.21;59.30;101076.88;88444;1271;80216;-69
2022/04/14 01:36:44;;;;;;;16.90;10.90;;;;;;;4.15;59.27;101074.88;88393;1271;98238;-69
2022/04/14 01:38:52;;;;;;;17.00;10.80;;;;;;;4.08;59.65;101070.25;88468;1271;87693;-61
2022/04/14 01:41:04;;;;;;;18.30;10.50;;;;;;;4.03;59.84;101071.45;88408;1271;93259;-60
2022/04/14 01:43:13;;;;;;;17.40;10.00;;;;;;;4.03;59.62;101072.17;88423;1271;80341;-60
2022/04/14 01:45:23;;;;;;;17.00;10.90;;;;;;;4.07;59.75;101072.34;88451;1271;80094;-70
2022/04/14 01:47:38;;;;;;;15.60;9.90;;;;;;;4.07;59.80;101076.21;88320;1271;97843;-71
2022/04/14 01:49:50;;;;;;;18.20;10.50;;;;;;;4.23;59.53;101077.73;88417;1271;88121;-60
2022/04/14 01:51:58;;;;;;;17.90;10.30;;;;;;;4.42;59.23;101081.05;88443;1271;93233;-61
2022/04/14 01:54:10;;;;;;;15.20;10.20;;;;;;;4.61;58.75;101078.63;88422;1271;77155;-69
2022/04/14 01:56:21;;;;;;;18.10;10.90;;;;;;;4.64;58.75;101077.48;88445;1271;83308;-70
2022/04/14 01:58:33;;;;;;;16.80;10.50;;;;;;;4.63;58.76;101078.50;88453;1271;99682;-71
2022/04/14 02:00:45;;;;;;;18.00;11.10;;;;;;;4.65;58.49;101075.08;88441;1271;88528;-59
2022/04/14 02:02:56;;;;;;;18.90;10.00;;;;;;;4.75;58.39;101076.49;88283;1271;94952;-60
2022/04/14 02:05:06;;;;;;;19.10;10.20;;;;;;;4.81;58.23;101069.61;88460;1271;78355;-70
2022/04/14 02:07:15;;;;;;;19.00;11.10;;;;;;;4.82;58.24;101063.27;88441;1271;82642;-70
2022/04/14 02:09:24;;;;;;;16.00;10.60;;;;;;;4.80;58.11;101069.52;88445;1271;98677;-59
2022/04/14 02:11:33;;;;;;;20.70;12.10;;;;;;;4.77;58.06;101068.50;88459;1271;88568;-61
2022/04/14 02:13:51;;;;;;;19.80;12.30;;;;;;;4.77;58.01;101069.37;88418;1271;95728;-61
2022/04/14 02:16:01;;;;;;;23.90;13.70;;;;;;;4.83;58.11;101072.38;88409;1271;78888;-70
2022/04/14 02:18:12;;;;;;;22.20;13.00;;;;;;;4.79;58.05;101076.33;88447;1270;81390;-70
2022/04/14 02:20:24;;;;;;;20.70;11.60;;;;;;;4.76;58.20;101079.63;88408;1270;99380;-59
2022/04/14 02:22:41;;;;;;;18.70;11.60;;;;;;;4.73;58.10;101074.55;88469;1271;88580;-61
2022/04/14 02:24:53;;;;;;;24.60;12.90;;;;;;;4.71;58.52;101074.66;88293;1271;95646;-70
2022/04/14 02:27:06;;;;;;;19.40;13.00;;;;;;;4.72;58.26;101074.30;88429;1271;78510;-70
2022/04/14 02:29:15;;;;;;;21.00;13.70;;;;;;;4.68;58.20;101070.14;88457;1270;82397;-61
2022/04/14 02:31:24;;;;;;;20.70;13.50;;;;;;;4.77;58.67;101069.56;88439;1271;97119;-61
2022/04/14 02:33:37;;;;;;;22.00;13.70;;;;;;;4.82;58.41;101069.30;88450;1271;89401;-60
2022/04/14 02:35:47;;;;;;;21.50;14.10;;;;;;;4.86;58.48;101067.66;88409;1271;92202;-60
2022/04/14 02:37:56;;;;;;;24.00;13.90;;;;;;;4.85;58.53;101066.02;88410;1271;79292;-61
2022/04/14 02:40:07;;;;;;;24.30;14.40;;;;;;;4.88;58.43;101067.69;88436;1271;83002;-61
2022/04/14 02:42:18;;;;;;;22.80;14.50;;;;;;;4.84;58.54;101063.76;88475;1271;98240;-59
2022/04/14 02:44:27;;;;;;;24.40;14.60;;;;;;;4.80;58.41;101062.16;88435;1271;88095;-61
2022/04/14 02:46:39;;;;;;;23.30;15.10;;;;;;;4.79;58.70;101060.27;88423;1269;93653;-59
2022/04/14 02:48:51;;;;;;;27.10;14.40;;;;;;;4.79;58.57;101059.04;88458;1271;78500;-68
2022/04/14 02:51:00;;;;;;;21.90;13.50;;;;;;;4.75;58.48;101056.38;88438;1271;81246;-69
2022/04/14 02:53:13;;;;;;;22.70;14.00;;;;;;;4.70;58.61;101058.77;88450;1271;97126;-70
2022/04/14 02:55:21;;;;;;;21.40;13.10;;;;;;;4.62;58.77;101061.79;88419;1271;89303;-69
2022/04/14 02:57:31;;;;;;;20.10;12.50;;;;;;;4.53;58.72;101060.77;88438;1271;94915;-69
2022/04/14 02:59:40;;;;;;;19.90;12.00;;;;;;;4.45;59.03;101059.55;88433;1270;78928;-60
2022/04/14 03:01:49;;;;;;;21.60;13.20;;;;;;;4.40;59.24;101061.08;88433;1271;82922;-60
2022/04/14 03:04:01;;;;;;;25.70;13.90;;;;;;;4.40;59.33;101057.48;88425;1271;99279;-60
2022/04/14 03:06:10;;;;;;;26.00;14.00;;;;;;;4.49;59.32;101055.65;88461;1271;87838;-60
2022/04/14 03:08:20;;;;;;;23.50;13.80;;;;;;;4.57;59.37;101056.03;88423;1271;95608;-60
2022/04/14 03:10:32;;;;;;;27.50;14.20;;;;;;;4.59;59.17;101056.57;88408;1271;80640;-70
2022/04/14 03:12:49;;;;;;;21.20;13.00;;;;;;;4.64;59.45;101056.48;88456;1271;83353;-70
2022/04/14 03:15:01;;;;;;;22.40;13.70;;;;;;;4.62;59.26;101056.10;88431;1270;98514;-60
2022/04/14 03:17:10;;;;;;;24.70;15.30;;;;;;;4.58;59.29;101052.85;88418;1270;89229;-61
2022/04/14 03:19:20;;;;;;;21.70;13.90;;;;;;;4.56;59.28;101058.92;88388;1271;93268;-60
2022/04/14 03:21:28;;;;;;;24.00;13.80;;;;;;;4.52;59.61;101052.38;88360;1271;77922;-61
2022/04/14 03:23:38;;;;;;;22.30;14.60;;;;;;;4.44;59.56;101050.05;88347;1271;81693;-61
2022/04/14 03:25:47;;;;;;;22.20;14.10;;;;;;;4.37;59.75;101051.52;88336;1271;95954;-70
2022/04/14 03:27:58;;;;;;;22.10;14.20;;;;;;;4.31;59.80;101049.55;88323;1271;88559;-71
2022/04/14 03:30:11;;;;;;;23.60;14.10;;;;;;;4.27;60.00;101048.88;88362;1271;95493;-61
2022/04/14 03:32:22;;;;;;;26.30;14.80;;;;;;;4.30;60.03;101042.95;88355;1271;78844;-61
2022/04/14 03:34:30;;;;;;;20.80;14.10;;;;;;;4.30;60.03;101039.87;88320;1271;83095;-60
2022/04/14 03:36:40;;;;;;;25.40;14.50;;;;;;;4.33;60.30;101042.46;88349;1271;99304;-60
2022/04/14 03:38:49;;;;;;;24.50;14.20;;;;;;;4.38;60.29;101033.81;88358;1271;87545;-61
2022/04/14 03:41:04;;;;;;;24.50;14.60;;;;;;;4.44;60.19;101031.53;88352;1271;95875;-60
2022/04/14 03:43:17;;;;;;;24.40;14.00;;;;;;;4.48;60.21;101030.42;88343;1271;78401;-60
2022/04/14 03:45:29;;;;;;;24.00;13.80;;;;;;;4.61;60.51;101031.52;88316;1271;81264;-69
2022/04/14 03:47:41;;;;;;;21.30;13.50;;;;;;;4.67;60.23;101025.10;88387;1271;96652;-70
2022/04/14 03:49:50;;;;;;;25.90;14.20;;;;;;;4.72;60.16;101024.16;88374;1271;85616;-60
2022/04/14 03:51:59;;;;;;;24.40;13.70;;;;;;;4.74;59.99;101021.70;88295;1271;94785;-60
2022/04/14 03:54:07;;;;;;;22.20;14.10;;;;;;;4.76;59.98;101025.05;88385;1271;76763;-69
2022/04/14 03:56:20;;;;;;;22.90;14.40;;;;;;;4.82;60.05;101020.59;88366;1271;80824;-71
2022/04/14 03:58:28;;;;;;;25.90;14.30;;;;;;;4.91;59.73;101021.75;88346;1271;98828;-70
2022/04/14 04:00:37;;;;;;;23.50;13.90;;;;;;;4.96;59.63;101024.34;88363;1271;87604;-69
2022/04/14 04:02:48;;;;;;;23.60;13.70;;;;;;;5.00;59.76;101026.09;88370;1271;94375;-70
2022/04/14 04:05:00;;;;;;;25.80;14.50;;;;;;;5.05;59.72;101022.05;88317;1271;77222;-60
2022/04/14 04:07:10;;;;;;;21.30;13.80;;;;;;;5.12;59.45;101023.35;88300;1271;83410;-60
2022/04/14 04:09:20;;;;;;;21.30;13.40;;;;;;;5.20;59.65;101023.73;88375;1271;98062;-69
2022/04/14 04:11:29;;;;;;;21.80;14.00;;;;;;;5.27;59.48;101023.20;88377;1271;86888;-69
2022/04/14 04:13:38;;;;;;;25.30;13.80;;;;;;;5.41;59.39;101018.59;88345;1271;94137;-70
2022/04/14 04:15:47;;;;;;;21.70;13.00;;;;;;;5.56;59.23;101014.62;88344;1271;77379;-70
2022/04/14 04:17:55;;;;;;;22.10;13.50;;;;;;;5.75;59.07;101014.25;88343;1271;80781;-69
2022/04/14 04:20:05;;;;;;;22.00;13.20;;;;;;;5.89;58.90;101012.27;88309;1271;98991;-69
2022/04/14 04:22:17;;;;;;;22.90;14.00;;;;;;;6.05;58.70;101010.55;88365;1270;89568;-70
2022/04/14 04:24:26;;;;;;;21.20;13.90;;;;;;;6.27;58.44;101009.16;88340;1271;95345;-69
2022/04/14 04:26:39;;;;;;;21.90;13.80;;;;;;;6.50;58.14;101010.14;88326;1271;79529;-69
2022/04/14 04:28:48;;;;;;;22.10;14.30;;;;;;;6.79;57.70;101007.14;88388;1271;81717;-60
2022/04/14 04:31:00;;;;;;;23.10;13.20;;;;;;;7.10;57.42;100998.63;88387;1271;99112;-60
2022/04/14 04:33:11;;;;;;;21.50;14.50;;;;;;;7.41;57.10;100995.63;88340;1271;88468;-60
2022/04/14 04:35:23;;;;;;;23.40;14.40;;;;;;;7.79;56.33;100994.80;88187;1274;97950;-70
2022/04/14 04:37:36;;;;;;;21.00;13.50;;;;;;;8.17;56.06;100990.86;88315;1271;78040;-70
2022/04/14 04:39:45;;;;;;;23.40;13.30;;;;;;;8.51;55.22;100994.02;88370;1271;81131;-60
2022/04/14 04:41:54;;;;;;;20.50;14.20;;;;;;;8.80;54.89;100994.95;88333;1271;97633;-61
2022/04/14 04:44:04;;;;;;;22.90;14.30;;;;;;;9.08;54.31;100995.70;88367;1271;87198;-70
2022/04/14 04:46:16;;;;;;;22.60;13.40;;;;;;;9.37;54.13;100990.27;88342;1271;95087;-69
2022/04/14 04:48:25;;;;;;;20.10;13.20;;;;;;;9.61;53.14;100986.59;88367;1271;80296;-70
2022/04/14 04:50:34;;;;;;;20.90;13.80;;;;;;;9.90;52.96;100983.52;88372;1271;81788;-71
2022/04/14 04:52:43;;;;;;;21.40;13.90;;;;;;;10.33;52.29;100984.95;88350;1271;98719;-69
2022/04/14 04:54:52;;;;;;;21.20;13.00;;;;;;;10.65;51.40;100984.27;88394;1270;86684;-60
2022/04/14 04:57:01;;;;;;;28.10;13.70;;;;;;;10.90;50.87;100985.86;88110;1270;316926;-59
2022/04/14 04:59:09;;;;;;;22.10;14.10;;;;;;;11.17;50.56;100986.89;88345;1271;78492;-70
2022/04/14 05:01:19;;;;;;;22.20;13.80;;;;;;;11.28;49.88;100990.23;88313;1271;82231;-70
2022/04/14 05:03:28;;;;;;;20.80;14.00;;;;;;;11.42;49.52;100990.80;88323;1271;97009;-70
2022/04/14 05:05:37;;;;;;;23.10;14.10;;;;;;;11.52;49.25;100987.08;88381;1271;87734;-60
2022/04/14 05:07:46;;;;;;;22.70;13.10;;;;;;;11.65;48.67;100989.33;88364;1271;95689;-60
2022/04/14 05:09:58;;;;;;;20.70;13.10;;;;;;;11.81;48.37;100986.45;88393;1271;80154;-59
2022/04/14 05:12:09;;;;;;;19.60;13.40;;;;;;;12.04;48.13;100987.12;88371;1271;81909;-60
2022/04/14 05:14:18;;;;;;;20.10;13.70;;;;;;;12.21;47.79;100985.60;88324;1271;98684;-60
2022/04/14 05:16:30;;;;;;;18.60;13.10;;;;;;;12.36;46.99;100984.20;88338;1271;88579;-61
2022/04/14 05:18:42;;;;;;;21.50;13.00;;;;;;;12.62;46.79;100982.35;88320;1271;93565;-60
2022/04/14 05:20:55;;;;;;;22.70;14.10;;;;;;;12.94;46.45;100981.17;88372;1271;77576;-60
2022/04/14 05:23:08;;;;;;;18.70;13.80;;;;;;;13.26;45.87;100975.93;88365;1271;83019;-62
2022/04/14 05:25:17;;;;;;;21.90;14.20;;;;;;;13.46;44.81;100973.73;88378;1271;99574;-59
2022/04/14 05:27:29;;;;;;;20.80;13.90;;;;;;;13.78;44.87;100974.38;88297;1271;89334;-61
2022/04/14 05:29:38;;;;;;;20.80;14.00;;;;;;;14.26;44.63;100973.47;88310;1271;95264;-70
2022/04/14 05:31:49;;;;;;;17.00;13.30;;;;;;;14.68;43.99;100975.82;88297;1271;78182;-70
2022/04/14 05:33:58;;;;;;;18.80;13.60;;;;;;;15.20;43.72;100975.05;88406;1271;82887;-69
2022/04/14 05:36:09;;;;;;;19.20;13.00;;;;;;;15.61;42.31;100973.82;88392;1271;98024;-69
2022/04/14 05:38:18;;;;;;;21.70;14.80;;;;;;;15.81;41.20;100973.33;88383;1271;89576;-70
2022/04/14 05:40:31;;;;;;;20.60;13.10;;;;;;;16.00;41.29;100974.70;88353;1271;95037;-61
2022/04/14 05:42:42;;;;;;;19.70;13.00;;;;;;;16.39;40.73;100970.72;88386;1271;78926;-61
2022/04/14 05:44:51;;;;;;;17.70;12.60;;;;;;;16.91;40.48;100975.61;88303;1271;80841;-60
2022/04/14 05:47:03;;;;;;;19.00;13.30;;;;;;;17.17;39.02;100969.02;88384;1271;98006;-60
2022/04/14 05:49:18;;;;;;;20.50;12.80;;;;;;;17.70;39.09;100969.24;88418;1271;88089;-70
2022/04/14 05:51:30;;;;;;;19.00;12.70;;;;;;;18.35;38.53;100966.26;88410;1271;94255;-68
2022/04/14 05:53:39;;;;;;;20.10;13.30;;;;;;;18.83;37.59;100969.66;88274;1274;78854;-69
2022/04/14 05:55:51;;;;;;;20.10;12.50;;;;;;;19.04;37.34;100970.27;88373;1271;82824;-69
2022/04/14 05:58:00;;;;;;;16.80;11.50;;;;;;;19.33;35.72;100970.98;88300;1271;98001;-69
2022/04/14 06:00:13;;;;;;;18.80;12.40;;;;;;;19.34;35.78;100960.72;88409;1271;87066;-70
2022/04/14 06:02:26;;;;;;;17.60;11.70;;;;;;;19.87;35.37;100959.69;88375;1271;95872;-68
2022/04/14 06:04:35;;;;;;;15.80;11.20;;;;;;;20.27;34.21;100959.90;88393;1271;79970;-67
2022/04/14 06:06:49;;;;;;;17.80;11.80;;;;;;;20.58;34.13;100959.64;88393;1271;81285;-67
2022/04/14 06:08:59;;;;;;;16.40;11.50;;;;;;;20.85;32.95;100965.38;88281;1274;98438;-60
2022/04/14 06:11:09;;;;;;;16.20;11.30;;;;;;;21.08;32.79;100959.17;88372;1271;87250;-59
2022/04/14 06:13:18;;;;;;;16.20;11.40;;;;;;;21.63;32.35;100955.71;88385;1270;92390;-60
2022/04/14 06:15:27;;;;;;;16.30;12.20;;;;;;;22.12;31.28;100958.05;88343;1271;80314;-68
2022/04/14 06:17:39;;;;;;;17.10;11.90;;;;;;;22.06;30.57;100955.69;88383;1271;82204;-68
2022/04/14 06:19:51;;;;;;;15.40;11.50;;;;;;;22.39;30.57;100953.66;88387;1270;97698;-68
2022/04/14 06:22:02;;;;;;;15.50;11.60;;;;;;;22.64;29.48;100952.60;88362;1271;87472;-68
2022/04/14 06:24:11;;;;;;;16.50;11.50;;;;;;;22.86;29.51;100951.91;88348;1271;93643;-59
2022/04/14 06:26:20;;;;;;;14.30;12.10;;;;;;;23.65;29.23;100946.05;88305;1271;78792;-60
2022/04/14 06:28:34;;;;;;;15.00;11.80;;;;;;;23.80;28.32;100946.42;88387;1270;80700;-60
2022/04/14 06:30:47;;;;;;;17.80;12.20;;;;;;;23.83;27.38;100947.89;88382;1271;97141;-60
2022/04/14 06:33:05;;;;;;;15.10;11.30;;;;;;;23.99;28.04;100944.16;88354;1271;86930;-60
2022/04/14 06:35:16;;;;;;;16.20;12.30;;;;;;;24.23;27.44;100941.65;88321;1271;94513;-61
2022/04/14 06:37:28;;;;;;;17.50;12.30;;;;;;;24.38;26.09;100940.30;88323;1271;80394;-60
2022/04/14 06:39:37;;;;;;;17.80;12.50;;;;;;;24.04;26.47;100934.26;88340;1271;81177;-61
2022/04/14 06:41:46;;;;;;;17.60;12.00;;;;;;;23.89;26.24;100929.27;88356;1271;98128;-60
2022/04/14 06:43:57;;;;;;;17.30;11.60;;;;;;;24.06;27.27;100930.40;88346;1271;88164;-60
2022/04/14 06:46:07;;;;;;;15.90;11.30;;;;;;;24.56;27.04;100928.46;88411;1271;94968;-60
2022/04/14 06:48:18;;;;;;;16.00;11.80;;;;;;;25.06;25.90;100930.38;88376;1271;77495;-60
2022/04/14 06:50:27;;;;;;;17.60;11.50;;;;;;;25.35;25.78;100927.73;88385;1271;81884;-65
2022/04/14 06:52:37;;;;;;;14.00;11.50;;;;;;;25.49;26.09;100924.23;88324;1271;99419;-61
2022/04/14 06:54:46;;;;;;;19.00;12.10;;;;;;;25.41;25.32;100925.04;88390;1271;87709;-68
2022/04/14 06:56:58;;;;;;;15.50;11.70;;;;;;;25.76;24.79;100916.23;88343;1271;94450;-68
2022/04/14 06:59:08;;;;;;;16.50;11.90;;;;;;;25.86;24.48;100910.24;88305;1271;79598;-68
2022/04/14 07:01:17;;;;;;;16.70;12.80;;;;;;;25.85;24.69;100910.97;88354;1271;82844;-68
2022/04/14 07:03:30;;;;;;;16.60;12.50;;;;;;;25.92;24.77;100910.36;88355;1271;97475;-68
2022/04/14 07:05:39;;;;;;;16.40;11.60;;;;;;;26.12;24.24;100912.94;88345;1271;89095;-67
2022/04/14 07:07:48;;;;;;;16.30;11.60;;;;;;;26.47;24.56;100910.20;88332;1271;95360;-69
2022/04/14 07:09:57;;;;;;;14.90;11.50;;;;;;;26.85;24.53;100910.54;88319;1271;80334;-67
2022/04/14 07:12:12;;;;;;;14.10;11.50;;;;;;;26.93;23.69;100910.00;88391;1271;82563;-68
2022/04/14 07:14:24;;;;;;;17.80;11.30;;;;;;;27.23;22.09;100905.89;88374;1271;98822;-71
2022/04/14 07:16:36;;;;;;;15.60;11.60;;;;;;;27.11;22.69;100898.70;88351;1271;89206;-70
2022/04/14 07:18:46;;;;;;;18.30;11.20;;;;;;;27.55;22.87;100897.70;88373;1270;95266;-66
2022/04/14 07:20:58;;;;;;;15.10;11.40;;;;;;;28.06;22.41;100895.60;88291;1271;77887;-61
2022/04/14 07:23:08;;;;;;;15.50;11.40;;;;;;;28.49;22.61;100896.43;88352;1271;83215;-63
2022/04/14 07:25:17;;;;;;;17.50;11.40;;;;;;;29.00;22.54;100897.58;88344;1271;98398;-64
2022/04/14 07:27:26;;;;;;;13.70;10.60;;;;;;;29.28;21.62;100895.98;88330;1271;88497;-61
2022/04/14 07:29:41;;;;;;;15.50;11.30;;;;;;;29.33;21.46;100897.29;88338;1271;94618;-70
2022/04/14 07:31:52;;;;;;;18.30;11.70;;;;;;;29.60;21.47;100898.81;88295;1271;78671;-68
2022/04/14 07:34:05;;;;;;;14.00;10.70;;;;;;;29.05;21.15;100898.95;88372;1271;80032;-67
2022/04/14 07:36:21;;;;;;;14.80;10.60;;;;;;;29.26;21.36;100901.67;88354;1271;97442;-69
2022/04/14 07:38:33;;;;;;;14.90;9.30;;;;;;;29.46;20.86;100895.73;88333;1271;88439;-60
2022/04/14 07:40:42;;;;;;;12.50;9.60;;;;;;;29.61;20.43;100891.55;88307;1271;95816;-67
2022/04/14 07:42:51;;;;;;;10.00;8.90;;;;;;;29.59;20.63;100890.18;88287;1271;81090;-69
2022/04/14 07:45:02;;;;;;;10.90;8.40;;;;;;;29.46;21.03;100888.16;88353;1270;82194;-69
2022/04/14 07:47:11;;;;;;;10.60;9.00;;;;;;;29.42;19.44;100890.34;88349;1271;98777;-69
2022/04/14 07:49:23;;;;;;;11.90;9.60;;;;;;;29.33;20.35;100895.49;88376;1270;88285;-68
2022/04/14 07:51:32;;;;;;;14.90;9.20;;;;;;;29.96;20.82;100891.67;88361;1271;95520;-68
2022/04/14 07:53:44;;;;;;;9.50;8.00;;;;;;;30.51;20.21;100886.08;88331;1270;77947;-62
2022/04/14 07:55:55;;;;;;;10.90;8.30;;;;;;;30.59;20.23;100883.75;88359;1271;82661;-62
2022/04/14 07:58:09;;;;;;;10.10;8.90;;;;;;;30.47;19.64;100889.01;88311;1271;99018;-62
2022/04/14 08:00:20;;;;;;;11.30;8.10;;;;;;;30.80;20.09;100888.81;88358;1271;88661;-60
2022/04/14 08:02:35;;;;;;;11.50;8.50;;;;;;;31.02;19.23;100887.80;88342;1271;93717;-68
2022/04/14 08:04:49;;;;;;;12.10;8.90;;;;;;;30.80;18.72;100884.70;88288;1274;80649;-62
2022/04/14 08:06:59;;;;;;;11.20;8.20;;;;;;;30.12;19.60;100881.81;88357;1271;81373;-66
2022/04/14 08:09:11;;;;;;;10.40;8.60;;;;;;;30.16;19.37;100880.55;88359;1271;98067;-69
2022/04/14 08:11:23;;;;;;;9.60;7.60;;;;;;;30.38;18.95;100882.98;88335;1271;90028;-72
2022/04/14 08:13:36;;;;;;;10.10;7.90;;;;;;;30.47;18.95;100881.42;88306;1271;94383;-68
2022/04/14 08:15:45;;;;;;;11.00;8.40;;;;;;;30.65;18.48;100884.23;88373;1271;78512;-69
2022/04/14 08:17:57;;;;;;;13.50;8.10;;;;;;;30.62;18.76;100883.13;88326;1271;83115;-69
2022/04/14 08:20:13;;;;;;;11.20;7.50;;;;;;;30.83;19.01;100878.66;88351;1271;97097;-77
2022/04/14 08:22:25;;;;;;;9.60;7.90;;;;;;;31.09;18.50;100878.27;88359;1271;86489;-76
2022/04/14 08:24:35;;;;;;;10.60;7.50;;;;;;;31.49;18.82;100878.39;88366;1271;94361;-67
2022/04/14 08:26:45;;;;;;;9.10;7.60;;;;;;;31.11;17.61;100877.73;88341;1271;78270;-60
2022/04/14 08:28:58;;;;;;;9.80;6.40;;;;;;;30.87;17.94;100874.91;88356;1271;81656;-62
2022/04/14 08:31:11;;;;;;;9.20;8.20;;;;;;;31.12;18.11;100877.19;88322;1270;99211;-60
2022/04/14 08:33:23;;;;;;;7.40;6.70;;;;;;;31.26;17.94;100873.22;88364;1271;89597;-64
2022/04/14 08:35:37;;;;;;;10.30;7.20;;;;;;;30.84;17.41;100870.98;88322;1271;95593;-61
2022/04/14 08:37:47;;;;;;;10.90;7.10;;;;;;;30.12;17.34;100871.66;88296;1271;79068;-60
2022/04/14 08:40:06;;;;;;;9.20;7.20;;;;;;;30.13;18.30;100872.38;88362;1271;81051;-68
2022/04/14 08:42:28;;;;;;;8.40;7.20;;;;;;;30.58;17.70;100868.59;88355;1270;98164;-68
2022/04/14 08:44:47;;;;;;;8.70;7.50;;;;;;;30.73;17.91;100870.05;88335;1271;88876;-61
2022/04/14 08:46:56;;;;;;;10.10;7.20;;;;;;;31.01;18.00;100873.02;88341;1271;94424;-64
2022/04/14 08:49:06;;;;;;;10.20;6.70;;;;;;;31.05;17.35;100879.98;88354;1271;79167;-68
2022/04/14 08:51:15;;;;;;;8.20;6.40;;;;;;;30.46;17.05;100877.24;88351;1270;81586;-66
2022/04/14 08:53:29;;;;;;;6.80;6.10;;;;;;;30.03;16.97;100877.67;88323;1271;97968;-64
2022/04/14 08:55:43;;;;;;;7.80;5.50;;;;;;;30.07;17.76;100868.75;88339;1271;89541;-68
2022/04/14 08:57:54;;;;;;;9.50;6.00;;;;;;;30.36;17.61;100873.61;88335;1271;93517;-66
2022/04/14 09:00:11;;;;;;;7.60;5.60;;;;;;;30.30;17.29;100872.31;88287;1271;78254;-61
2022/04/14 09:02:23;;;;;;;7.60;6.00;;;;;;;29.95;17.99;100862.56;88428;1270;82954;-61
2022/04/14 09:04:38;;;;;;;8.10;5.80;;;;;;;30.32;18.10;100862.30;88292;1271;99426;-68
2022/04/14 09:06:51;;;;;;;8.20;5.20;;;;;;;30.37;18.43;100859.81;88375;1271;87914;-68
2022/04/14 09:09:03;;;;;;;8.70;5.60;;;;;;;30.66;18.10;100857.99;88351;1271;94248;-68
2022/04/14 09:11:13;;;;;;;6.80;5.80;;;;;;;30.68;17.97;100852.60;88268;1274;78684;-68
2022/04/14 09:13:26;;;;;;;8.80;5.20;;;;;;;30.82;17.89;100853.11;88366;1271;82653;-69
2022/04/14 09:15:35;;;;;;;7.00;5.40;;;;;;;30.56;17.35;100852.34;88374;1271;97786;-69
2022/04/14 09:17:44;;;;;;;6.70;4.90;;;;;;;30.36;17.64;100843.44;88377;1271;88689;-68
2022/04/14 09:19:53;;;;;;;6.10;5.20;;;;;;;30.43;17.26;100850.45;88405;1271;94170;-67
2022/04/14 09:22:04;;;;;;;7.10;5.30;;;;;;;29.98;17.39;100844.73;88310;1271;77307;-68
2022/04/14 09:24:16;;;;;;;7.80;5.30;;;;;;;29.91;17.69;100844.64;88405;1271;80812;-68
2022/04/14 09:26:28;;;;;;;6.40;5.20;;;;;;;29.49;17.61;100849.35;88357;1271;96612;-68
2022/04/14 09:28:37;;;;;;;7.10;5.20;;;;;;;28.64;17.89;100845.86;88382;1271;89540;-69
2022/04/14 09:31:03;;;;;;;7.60;4.70;;;;;;;28.34;18.08;100846.27;88403;1271;94403;-76
2022/04/14 09:33:22;;;;;;;6.10;5.00;;;;;;;28.17;18.66;100837.14;88263;1274;78675;-76
2022/04/14 09:35:32;;;;;;;6.10;5.40;;;;;;;27.67;18.54;100834.67;88289;1271;82663;-66
2022/04/14 09:37:42;;;;;;;9.00;5.30;;;;;;;26.61;18.20;100833.61;88385;1271;98663;-67
2022/04/14 09:40:02;;;;;;;9.80;4.90;;;;;;;25.69;18.73;100823.79;88284;1274;90845;-66
2022/04/14 09:42:17;;;;;;;8.90;4.40;;;;;;;25.44;19.27;100826.32;88318;1271;93907;-66
2022/04/14 09:44:26;;;;;;;6.30;5.10;;;;;;;25.29;19.36;100823.77;88402;1271;78979;-81
2022/04/14 09:46:36;;;;;;;6.90;4.90;;;;;;;24.99;19.24;100823.79;88280;1271;83605;-79
2022/04/14 09:49:10;;;;;;;6.60;4.90;;;;;;;24.85;19.93;100815.59;88383;1271;99168;-77
2022/04/14 09:51:32;;;;;;;6.40;4.90;;;;;;;24.77;20.28;100807.98;88418;1271;88825;-69
2022/04/14 09:53:48;;;;;;;7.70;4.60;;;;;;;24.47;19.78;100809.96;88387;1271;93283;-68
2022/04/14 09:56:01;;;;;;;8.20;4.90;;;;;;;23.97;19.65;100808.95;88387;1271;79198;-60
2022/04/14 09:58:19;;;;;;;8.50;4.80;;;;;;;23.61;19.93;100802.14;88311;1271;80328;-60
2022/04/14 10:00:43;;;;;;;6.70;4.10;;;;;;;23.39;19.85;100799.43;88412;1270;97715;-62
2022/04/14 10:03:10;;;;;;;7.20;3.90;;;;;;;23.38;20.22;100795.77;88369;1270;89362;-61